sensor_id;sensor_type;location;lat;lon;timestamp;pressure;altitude;pressure_sealevel;temperature;humidity
58955;BME280;45815;52.334;5.024;2023-02-16T00:00:15;102346.38;;;5.11;100.00
58955;BME280;45815;52.334;5.024;2023-02-16T00:02:41;102347.47;;;5.14;100.00
58955;BME280;45815;52.334;5.024;2023-02-16T00:07:50;102347.47;;;5.14;100.00
58955;BME280;45815;52.334;5.024;2023-02-16T00:10:15;102351.06;;;5.16;100.00
58955;BME280;45815;52.334;5.024;2023-02-16T00:12:41;102338.66;;;5.12;100.00
58955;BME280;45815;52.334;5.024;2023-02-16T00:15:25;102335.69;;;5.06;100.00
58955;BME280;45815;52.334;5.024;2023-02-16T00:17:50;102325.84;;;5.02;100.00
58955;BME280;45815;52.334;5.024;2023-02-16T00:20:16;102336.69;;;5.08;100.00
58955;BME280;45815;52.334;5.024;2023-02-16T00:22:42;102338.06;;;5.03;100.00
58955;BME280;45815;52.334;5.024;2023-02-16T00:25:08;102333.56;;;5.00;100.00
58955;BME280;45815;52.334;5.024;2023-02-16T00:27:33;102333.66;;;5.02;100.00
58955;BME280;45815;52.334;5.024;2023-02-16T00:29:59;102346.38;;;4.97;100.00
58955;BME280;45815;52.334;5.024;2023-02-16T00:32:25;102344.47;;;4.95;100.00
58955;BME280;45815;52.334;5.024;2023-02-16T00:34:50;102333.75;;;4.90;100.00
58955;BME280;45815;52.334;5.024;2023-02-16T00:37:16;102333.06;;;4.93;100.00
58955;BME280;45815;52.334;5.024;2023-02-16T00:39:42;102340.16;;;4.95;100.00
58955;BME280;45815;52.334;5.024;2023-02-16T00:42:30;102332.75;;;4.88;100.00
58955;BME280;45815;52.334;5.024;2023-02-16T00:44:58;102340.03;;;4.94;100.00
58955;BME280;45815;52.334;5.024;2023-02-16T00:47:37;102338.06;;;4.90;100.00
58955;BME280;45815;52.334;5.024;2023-02-16T00:50:14;102338.38;;;4.94;100.00
58955;BME280;45815;52.334;5.024;2023-02-16T00:52:43;102332.47;;;4.97;100.00
58955;BME280;45815;52.334;5.024;2023-02-16T00:55:33;102307.91;;;4.80;100.00
58955;BME280;45815;52.334;5.024;2023-02-16T01:00:32;102328.66;;;4.92;100.00
58955;BME280;45815;52.334;5.024;2023-02-16T01:03:01;102306.13;;;4.79;100.00
58955;BME280;45815;52.334;5.024;2023-02-16T01:05:27;102325.06;;;4.90;100.00
58955;BME280;45815;52.334;5.024;2023-02-16T01:07:53;102316.25;;;4.88;100.00
58955;BME280;45815;52.334;5.024;2023-02-16T01:10:38;102311.22;;;4.91;100.00
58955;BME280;45815;52.334;5.024;2023-02-16T01:13:23;102295.84;;;4.80;100.00
58955;BME280;45815;52.334;5.024;2023-02-16T01:15:50;102305.03;;;4.89;100.00
58955;BME280;45815;52.334;5.024;2023-02-16T01:18:17;102311.22;;;4.91;100.00
58955;BME280;45815;52.334;5.024;2023-02-16T01:20:44;102314.66;;;4.90;100.00
58955;BME280;45815;52.334;5.024;2023-02-16T01:23:10;102321.66;;;4.91;100.00
58955;BME280;45815;52.334;5.024;2023-02-16T01:25:36;102319.63;;;4.86;100.00
58955;BME280;45815;52.334;5.024;2023-02-16T01:28:02;102325.06;;;4.90;100.00
58955;BME280;45815;52.334;5.024;2023-02-16T01:30:28;102323.25;;;4.89;100.00
58955;BME280;45815;52.334;5.024;2023-02-16T01:32:53;102321.44;;;4.88;100.00
58955;BME280;45815;52.334;5.024;2023-02-16T01:35:31;102321.44;;;4.88;100.00
58955;BME280;45815;52.334;5.024;2023-02-16T01:37:57;102315.84;;;4.81;100.00
58955;BME280;45815;52.334;5.024;2023-02-16T01:43:22;102310.44;;;4.78;100.00
58955;BME280;45815;52.334;5.024;2023-02-16T01:46:07;102310.25;;;4.75;100.00
58955;BME280;45815;52.334;5.024;2023-02-16T01:48:35;102314.03;;;4.80;100.00
58955;BME280;45815;52.334;5.024;2023-02-16T01:51:22;102308.63;;;4.77;100.00
58955;BME280;45815;52.334;5.024;2023-02-16T01:53:55;102303.81;;;4.83;100.00
58955;BME280;45815;52.334;5.024;2023-02-16T01:59:04;102304.25;;;4.90;100.00
58955;BME280;45815;52.334;5.024;2023-02-16T02:04:07;102298.63;;;4.97;100.00
58955;BME280;45815;52.334;5.024;2023-02-16T02:06:52;102289.22;;;4.99;100.00
58955;BME280;45815;52.334;5.024;2023-02-16T02:09:34;102294.31;;;4.97;100.00
58955;BME280;45815;52.334;5.024;2023-02-16T02:14:54;102287.81;;;5.04;100.00
58955;BME280;45815;52.334;5.024;2023-02-16T02:17:22;102277.59;;;5.07;100.00
58955;BME280;45815;52.334;5.024;2023-02-16T02:28:09;102281.41;;;5.12;100.00
58955;BME280;45815;52.334;5.024;2023-02-16T02:30:50;102277.91;;;5.12;100.00
58955;BME280;45815;52.334;5.024;2023-02-16T02:38:46;102266.06;;;5.17;100.00
58955;BME280;45815;52.334;5.024;2023-02-16T02:41:34;102261.16;;;5.21;100.00
58955;BME280;45815;52.334;5.024;2023-02-16T02:44:23;102250.38;;;5.15;100.00
58955;BME280;45815;52.334;5.024;2023-02-16T02:46:52;102260.56;;;5.25;100.00
58955;BME280;45815;52.334;5.024;2023-02-16T02:49:18;102253.81;;;5.29;100.00
58955;BME280;45815;52.334;5.024;2023-02-16T02:51:43;102253.16;;;5.32;100.00
58955;BME280;45815;52.334;5.024;2023-02-16T02:54:21;102249.72;;;5.33;100.00
58955;BME280;45815;52.334;5.024;2023-02-16T03:00:12;102241.09;;;5.34;100.00
58955;BME280;45815;52.334;5.024;2023-02-16T03:03:06;102238.59;;;5.35;100.00
58955;BME280;45815;52.334;5.024;2023-02-16T03:05:37;102233.59;;;5.38;100.00
58955;BME280;45815;52.334;5.024;2023-02-16T03:08:08;102236.59;;;5.31;100.00
58955;BME280;45815;52.334;5.024;2023-02-16T03:10:45;102237.91;;;5.38;100.00
58955;BME280;45815;52.334;5.024;2023-02-16T03:13:59;102232.69;;;5.38;100.00
58955;BME280;45815;52.334;5.024;2023-02-16T03:16:34;102245.28;;;5.45;100.00
58955;BME280;45815;52.334;5.024;2023-02-16T03:19:02;102244.69;;;5.49;100.00
58955;BME280;45815;52.334;5.024;2023-02-16T03:21:47;102245.50;;;5.48;100.00
58955;BME280;45815;52.334;5.024;2023-02-16T03:24:32;102244.56;;;5.47;100.00
58955;BME280;45815;52.334;5.024;2023-02-16T03:27:20;102233.44;;;5.50;100.00
58955;BME280;45815;52.334;5.024;2023-02-16T03:30:07;102228.22;;;5.50;100.00
58955;BME280;45815;52.334;5.024;2023-02-16T03:32:35;102231.06;;;5.53;100.00
58955;BME280;45815;52.334;5.024;2023-02-16T03:35:01;102226.13;;;5.58;100.00
58955;BME280;45815;52.334;5.024;2023-02-16T03:37:26;102231.50;;;5.61;100.00
58955;BME280;45815;52.334;5.024;2023-02-16T03:39:52;102236.53;;;5.58;100.00
58955;BME280;45815;52.334;5.024;2023-02-16T03:42:36;102236.81;;;5.62;100.00
58955;BME280;45815;52.334;5.024;2023-02-16T03:45:02;102234.28;;;5.64;100.00
58955;BME280;45815;52.334;5.024;2023-02-16T03:47:27;102227.41;;;5.64;100.00
58955;BME280;45815;52.334;5.024;2023-02-16T03:49:53;102230.28;;;5.69;100.00
58955;BME280;45815;52.334;5.024;2023-02-16T03:52:18;102224.97;;;5.67;100.00
58955;BME280;45815;52.334;5.024;2023-02-16T03:54:43;102220.06;;;5.72;100.00
58955;BME280;45815;52.334;5.024;2023-02-16T03:57:09;102229.75;;;5.75;100.00
58955;BME280;45815;52.334;5.024;2023-02-16T03:59:34;102225.16;;;5.70;100.00
58955;BME280;45815;52.334;5.024;2023-02-16T04:02:00;102230.75;;;5.77;100.00
58955;BME280;45815;52.334;5.024;2023-02-16T04:04:25;102240.28;;;5.76;100.00
58955;BME280;45815;52.334;5.024;2023-02-16T04:06:51;102218.44;;;5.74;100.00
58955;BME280;45815;52.334;5.024;2023-02-16T04:09:16;102230.22;;;5.82;100.00
58955;BME280;45815;52.334;5.024;2023-02-16T04:11:41;102223.28;;;5.83;100.00
58955;BME280;45815;52.334;5.024;2023-02-16T04:14:25;102217.72;;;5.77;100.00
58955;BME280;45815;52.334;5.024;2023-02-16T04:16:51;102232.19;;;5.86;100.00
58955;BME280;45815;52.334;5.024;2023-02-16T04:19:16;102229.78;;;5.89;100.00
58955;BME280;45815;52.334;5.024;2023-02-16T04:21:41;102234.25;;;5.92;100.00
58955;BME280;45815;52.334;5.024;2023-02-16T04:24:07;102242.09;;;5.92;100.00
58955;BME280;45815;52.334;5.024;2023-02-16T04:26:32;102223.16;;;5.95;100.00
58955;BME280;45815;52.334;5.024;2023-02-16T04:28:58;102214.78;;;5.85;100.00
58955;BME280;45815;52.334;5.024;2023-02-16T04:31:23;102228.38;;;5.95;100.00
58955;BME280;45815;52.334;5.024;2023-02-16T04:33:49;102219.88;;;5.97;100.00
58955;BME280;45815;52.334;5.024;2023-02-16T04:36:14;102220.03;;;6.00;100.00
58955;BME280;45815;52.334;5.024;2023-02-16T04:38:40;102221.94;;;6.03;100.00
58955;BME280;45815;52.334;5.024;2023-02-16T04:41:05;102224.63;;;6.04;100.00
58955;BME280;45815;52.334;5.024;2023-02-16T04:43:31;102223.09;;;6.08;100.00
58955;BME280;45815;52.334;5.024;2023-02-16T04:45:57;102223.09;;;6.08;100.00
58955;BME280;45815;52.334;5.024;2023-02-16T04:48:23;102217.97;;;6.09;100.00
58955;BME280;45815;52.334;5.024;2023-02-16T04:50:49;102203.56;;;6.01;100.00
58955;BME280;45815;52.334;5.024;2023-02-16T04:53:14;102214.38;;;6.07;100.00
58955;BME280;45815;52.334;5.024;2023-02-16T04:55:45;102221.59;;;6.11;100.00
58955;BME280;45815;52.334;5.024;2023-02-16T04:58:10;102212.06;;;6.12;100.00
58955;BME280;45815;52.334;5.024;2023-02-16T05:00:36;102212.94;;;6.12;100.00
58955;BME280;45815;52.334;5.024;2023-02-16T05:03:01;102212.16;;;6.13;100.00
58955;BME280;45815;52.334;5.024;2023-02-16T05:05:27;102208.88;;;6.18;100.00
58955;BME280;45815;52.334;5.024;2023-02-16T05:07:52;102207.09;;;6.17;100.00
58955;BME280;45815;52.334;5.024;2023-02-16T05:10:17;102196.78;;;6.18;100.00
58955;BME280;45815;52.334;5.024;2023-02-16T05:12:43;102188.13;;;6.19;100.00
58955;BME280;45815;52.334;5.024;2023-02-16T05:15:27;102185.44;;;6.18;100.00
58955;BME280;45815;52.334;5.024;2023-02-16T05:17:52;102192.63;;;6.22;100.00
58955;BME280;45815;52.334;5.024;2023-02-16T05:20:17;102183.03;;;6.21;100.00
58955;BME280;45815;52.334;5.024;2023-02-16T05:22:43;102196.06;;;6.21;100.00
58955;BME280;45815;52.334;5.024;2023-02-16T05:25:10;102192.47;;;6.19;100.00
58955;BME280;45815;52.334;5.024;2023-02-16T05:27:35;102199.44;;;6.20;100.00
58955;BME280;45815;52.334;5.024;2023-02-16T05:30:01;102197.56;;;6.17;100.00
58955;BME280;45815;52.334;5.024;2023-02-16T05:32:27;102192.47;;;6.19;100.00
58955;BME280;45815;52.334;5.024;2023-02-16T05:34:52;102196.84;;;6.20;100.00
58955;BME280;45815;52.334;5.024;2023-02-16T05:37:18;102194.44;;;6.23;100.00
58955;BME280;45815;52.334;5.024;2023-02-16T05:39:44;102192.00;;;6.26;100.00
58955;BME280;45815;52.334;5.024;2023-02-16T05:42:10;102191.19;;;6.27;100.00
58955;BME280;45815;52.334;5.024;2023-02-16T05:44:36;102201.59;;;6.27;100.00
58955;BME280;45815;52.334;5.024;2023-02-16T05:47:01;102192.16;;;6.29;100.00
58955;BME280;45815;52.334;5.024;2023-02-16T05:49:27;102203.50;;;6.29;100.00
58955;BME280;45815;52.334;5.024;2023-02-16T05:51:52;102207.03;;;6.30;100.00
58955;BME280;45815;52.334;5.024;2023-02-16T05:54:18;102196.59;;;6.30;100.00
58955;BME280;45815;52.334;5.024;2023-02-16T05:56:49;102198.53;;;6.34;100.00
58955;BME280;45815;52.334;5.024;2023-02-16T05:59:15;102187.78;;;6.28;100.00
58955;BME280;45815;52.334;5.024;2023-02-16T06:01:41;102204.84;;;6.38;100.00
58955;BME280;45815;52.334;5.024;2023-02-16T06:04:07;102198.53;;;6.34;100.00
58955;BME280;45815;52.334;5.024;2023-02-16T06:06:34;102204.13;;;6.40;100.00
58955;BME280;45815;52.334;5.024;2023-02-16T06:08:59;102205.91;;;6.41;100.00
58955;BME280;45815;52.334;5.024;2023-02-16T06:11:25;102197.03;;;6.38;100.00
58955;BME280;45815;52.334;5.024;2023-02-16T06:14:05;102205.13;;;6.42;100.00
58955;BME280;45815;52.334;5.024;2023-02-16T06:16:32;102205.38;;;6.47;100.00
58955;BME280;45815;52.334;5.024;2023-02-16T06:18:58;102213.28;;;6.48;100.00
58955;BME280;45815;52.334;5.024;2023-02-16T06:21:24;102209.16;;;6.52;100.00
58955;BME280;45815;52.334;5.024;2023-02-16T06:23:50;102201.31;;;6.52;100.00
58955;BME280;45815;52.334;5.024;2023-02-16T06:26:16;102194.38;;;6.52;100.00
58955;BME280;45815;52.334;5.024;2023-02-16T06:28:41;102190.25;;;6.56;100.00
58955;BME280;45815;52.334;5.024;2023-02-16T06:31:07;102204.19;;;6.57;100.00
58955;BME280;45815;52.334;5.024;2023-02-16T06:33:32;102208.59;;;6.58;100.00
58955;BME280;45815;52.334;5.024;2023-02-16T06:35:58;102213.09;;;6.60;100.00
58955;BME280;45815;52.334;5.024;2023-02-16T06:38:23;102206.97;;;6.60;100.00
58955;BME280;45815;52.334;5.024;2023-02-16T06:40:52;102206.97;;;6.60;100.00
58955;BME280;45815;52.334;5.024;2023-02-16T06:43:18;102211.41;;;6.61;100.00
58955;BME280;45815;52.334;5.024;2023-02-16T06:45:45;102224.50;;;6.62;100.00
58955;BME280;45815;52.334;5.024;2023-02-16T06:48:10;102220.28;;;6.64;100.00
58955;BME280;45815;52.334;5.024;2023-02-16T06:50:36;102207.53;;;6.54;100.00
58955;BME280;45815;52.334;5.024;2023-02-16T06:53:01;102227.22;;;6.64;100.00
58955;BME280;45815;52.334;5.024;2023-02-16T06:55:26;102221.16;;;6.65;100.00
58955;BME280;45815;52.334;5.024;2023-02-16T06:57:52;102230.00;;;6.67;100.00
58955;BME280;45815;52.334;5.024;2023-02-16T07:00:18;102230.00;;;6.67;100.00
58955;BME280;45815;52.334;5.024;2023-02-16T07:02:43;102226.75;;;6.71;100.00
58955;BME280;45815;52.334;5.024;2023-02-16T07:05:10;102225.28;;;6.76;100.00
58955;BME280;45815;52.334;5.024;2023-02-16T07:07:35;102230.72;;;6.79;100.00
58955;BME280;45815;52.334;5.024;2023-02-16T07:10:01;102226.66;;;6.84;100.00
58955;BME280;45815;52.334;5.024;2023-02-16T07:12:27;102231.22;;;6.88;100.00
58955;BME280;45815;52.334;5.024;2023-02-16T07:14:52;102224.34;;;6.90;100.00
58955;BME280;45815;52.334;5.024;2023-02-16T07:17:18;102228.94;;;6.94;100.00
58955;BME280;45815;52.334;5.024;2023-02-16T07:19:43;102203.31;;;6.87;100.00
58955;BME280;45815;52.334;5.024;2023-02-16T07:22:09;102228.31;;;6.98;100.00
58955;BME280;45815;52.334;5.024;2023-02-16T07:24:34;102234.16;;;6.94;100.00
58955;BME280;45815;52.334;5.024;2023-02-16T07:26:59;102227.31;;;6.96;100.00
58955;BME280;45815;52.334;5.024;2023-02-16T07:29:25;102229.94;;;6.96;100.00
58955;BME280;45815;52.334;5.024;2023-02-16T07:31:50;102242.16;;;6.97;100.00
58955;BME280;45815;52.334;5.024;2023-02-16T07:34:16;102234.31;;;6.97;100.00
58955;BME280;45815;52.334;5.024;2023-02-16T07:36:41;102244.97;;;7.01;100.00
58955;BME280;45815;52.334;5.024;2023-02-16T07:39:08;102239.75;;;7.01;100.00
58955;BME280;45815;52.334;5.024;2023-02-16T07:41:33;102255.31;;;6.99;100.00
58955;BME280;45815;52.334;5.024;2023-02-16T07:44:06;102250.97;;;7.00;100.00
58955;BME280;45815;52.334;5.024;2023-02-16T07:46:31;102262.59;;;7.05;100.00
58955;BME280;45815;52.334;5.024;2023-02-16T07:48:57;102262.59;;;7.05;100.00
58955;BME280;45815;52.334;5.024;2023-02-16T07:51:23;102267.81;;;7.05;100.00
58955;BME280;45815;52.334;5.024;2023-02-16T07:53:50;102265.13;;;7.03;100.00
58955;BME280;45815;52.334;5.024;2023-02-16T07:56:29;102264.22;;;7.03;100.00
58955;BME280;45815;52.334;5.024;2023-02-16T07:58:57;102262.94;;;7.11;100.00
58955;BME280;45815;52.334;5.024;2023-02-16T08:01:23;102261.22;;;7.11;100.00
58955;BME280;45815;52.334;5.024;2023-02-16T08:03:49;102257.06;;;7.15;100.00
58955;BME280;45815;52.334;5.024;2023-02-16T08:06:15;102250.59;;;7.08;100.00
58955;BME280;45815;52.334;5.024;2023-02-16T08:08:41;102264.06;;;7.16;100.00
58955;BME280;45815;52.334;5.024;2023-02-16T08:11:09;102269.50;;;7.19;100.00
58955;BME280;45815;52.334;5.024;2023-02-16T08:13:35;102266.22;;;7.23;100.00
58955;BME280;45815;52.334;5.024;2023-02-16T08:16:00;102265.31;;;7.23;100.00
58955;BME280;45815;52.334;5.024;2023-02-16T08:18:25;102269.91;;;7.27;100.00
58955;BME280;45815;52.334;5.024;2023-02-16T08:20:51;102264.59;;;7.25;100.00
58955;BME280;45815;52.334;5.024;2023-02-16T08:23:16;102264.78;;;7.28;100.00
58955;BME280;45815;52.334;5.024;2023-02-16T08:25:42;102268.53;;;7.33;100.00
58955;BME280;45815;52.334;5.024;2023-02-16T08:28:08;102268.81;;;7.23;100.00
58955;BME280;45815;52.334;5.024;2023-02-16T08:30:33;102279.16;;;7.36;100.00
58955;BME280;45815;52.334;5.024;2023-02-16T08:32:59;102273.94;;;7.36;100.00
58955;BME280;45815;52.334;5.024;2023-02-16T08:35:29;102276.38;;;7.33;100.00
58955;BME280;45815;52.334;5.024;2023-02-16T08:37:58;102288.59;;;7.34;100.00
58955;BME280;45815;52.334;5.024;2023-02-16T08:40:24;102287.63;;;7.32;100.00
58955;BME280;45815;52.334;5.024;2023-02-16T08:42:51;102288.53;;;7.33;100.00
58955;BME280;45815;52.334;5.024;2023-02-16T08:45:16;102292.84;;;7.32;100.00
58955;BME280;45815;52.334;5.024;2023-02-16T08:47:42;102289.59;;;7.36;100.00
58955;BME280;45815;52.334;5.024;2023-02-16T08:50:08;102294.81;;;7.36;100.00
58955;BME280;45815;52.334;5.024;2023-02-16T08:52:36;102292.94;;;7.34;100.00
58955;BME280;45815;52.334;5.024;2023-02-16T08:55:01;102296.44;;;7.34;100.00
58955;BME280;45815;52.334;5.024;2023-02-16T08:57:27;102288.53;;;7.33;100.00
58955;BME280;45815;52.334;5.024;2023-02-16T08:59:53;102287.63;;;7.32;100.00
58955;BME280;45815;52.334;5.024;2023-02-16T09:02:38;102278.91;;;7.32;100.00
58955;BME280;45815;52.334;5.024;2023-02-16T09:05:04;102279.00;;;7.33;100.00
58955;BME280;45815;52.334;5.024;2023-02-16T09:07:29;102281.75;;;7.36;100.00
58955;BME280;45815;52.334;5.024;2023-02-16T09:10:00;102278.25;;;7.36;100.00
58955;BME280;45815;52.334;5.024;2023-02-16T09:12:25;102272.47;;;7.42;100.00
58955;BME280;45815;52.334;5.024;2023-02-16T09:14:52;102276.56;;;7.53;100.00
58955;BME280;45815;52.334;5.024;2023-02-16T09:17:18;102275.97;;;7.58;100.00
58955;BME280;45815;52.334;5.024;2023-02-16T09:19:43;102275.28;;;7.61;100.00
58955;BME280;45815;52.334;5.024;2023-02-16T09:22:09;102270.75;;;7.58;100.00
58955;BME280;45815;52.334;5.024;2023-02-16T09:24:34;102280.31;;;7.58;100.00
58955;BME280;45815;52.334;5.024;2023-02-16T09:27:00;102282.13;;;7.59;100.00
58955;BME280;45815;52.334;5.024;2023-02-16T09:29:25;102272.66;;;7.61;100.00
58955;BME280;45815;52.334;5.024;2023-02-16T09:31:53;102269.97;;;7.59;100.00
58955;BME280;45815;52.334;5.024;2023-02-16T09:34:21;102268.97;;;7.57;100.00
58955;BME280;45815;52.334;5.024;2023-02-16T09:36:47;102264.81;;;7.61;100.00
58955;BME280;45815;52.334;5.024;2023-02-16T09:39:13;102280.81;;;7.67;100.00
58955;BME280;45815;52.334;5.024;2023-02-16T09:42:05;102281.41;;;7.61;100.00
58955;BME280;45815;52.334;5.024;2023-02-16T09:45:08;102275.44;;;7.64;100.00
58955;BME280;45815;52.334;5.024;2023-02-16T09:47:38;102281.16;;;7.73;100.00
58955;BME280;45815;52.334;5.024;2023-02-16T09:50:27;102285.91;;;7.80;100.00
58955;BME280;45815;52.334;5.024;2023-02-16T09:53:00;102292.50;;;7.90;100.00
58955;BME280;45815;52.334;5.024;2023-02-16T09:55:39;102292.00;;;7.97;100.00
58955;BME280;45815;52.334;5.024;2023-02-16T09:58:19;102291.47;;;8.03;100.00
58955;BME280;45815;52.334;5.024;2023-02-16T10:09:11;102303.13;;;8.10;100.00
58955;BME280;45815;52.334;5.024;2023-02-16T10:12:22;102307.69;;;7.97;100.00
58955;BME280;45815;52.334;5.024;2023-02-16T10:17:10;102303.06;;;8.08;100.00
58955;BME280;45815;52.334;5.024;2023-02-16T10:19:57;102303.53;;;8.17;100.00
58955;BME280;45815;52.334;5.024;2023-02-16T10:22:32;102305.16;;;8.15;100.00
58955;BME280;45815;52.334;5.024;2023-02-16T10:25:12;102288.50;;;8.13;100.00
58955;BME280;45815;52.334;5.024;2023-02-16T10:27:42;102290.75;;;8.23;100.00
58955;BME280;45815;52.334;5.024;2023-02-16T10:30:16;102282.25;;;8.28;100.00
58955;BME280;45815;52.334;5.024;2023-02-16T10:35:21;102286.00;;;8.33;100.00
58955;BME280;45815;52.334;5.024;2023-02-16T10:41:30;102291.75;;;8.42;100.00
58955;BME280;45815;52.334;5.024;2023-02-16T10:44:12;102275.38;;;8.46;100.00
58955;BME280;45815;52.334;5.024;2023-02-16T10:46:42;102278.63;;;8.58;100.00
58955;BME280;45815;52.334;5.024;2023-02-16T10:49:13;102262.16;;;8.61;100.00
58955;BME280;45815;52.334;5.024;2023-02-16T10:51:42;102260.91;;;8.71;100.00
58955;BME280;45815;52.334;5.024;2023-02-16T10:54:13;102270.03;;;8.79;100.00
58955;BME280;45815;52.334;5.024;2023-02-16T10:56:56;102276.25;;;8.81;100.00
58955;BME280;45815;52.334;5.024;2023-02-16T10:59:36;102269.66;;;8.89;100.00
58955;BME280;45815;52.334;5.024;2023-02-16T11:02:16;102262.78;;;8.91;100.00
58955;BME280;45815;52.334;5.024;2023-02-16T11:04:44;102257.84;;;8.97;100.00
58955;BME280;45815;52.334;5.024;2023-02-16T11:07:13;102256.22;;;8.99;100.00
58955;BME280;45815;52.334;5.024;2023-02-16T11:09:41;102258.28;;;9.06;100.00
58955;BME280;45815;52.334;5.024;2023-02-16T11:12:30;102265.97;;;9.03;100.00
58955;BME280;45815;52.334;5.024;2023-02-16T11:17:50;102257.22;;;9.03;100.00
58955;BME280;45815;52.334;5.024;2023-02-16T11:20:51;102256.34;;;9.02;100.00
58955;BME280;45815;52.334;5.024;2023-02-16T11:28:43;102258.88;;;9.19;100.00
58955;BME280;45815;52.334;5.024;2023-02-16T11:33:53;102260.44;;;9.52;100.00
58955;BME280;45815;52.334;5.024;2023-02-16T11:36:30;102261.16;;;9.68;100.00
58955;BME280;45815;52.334;5.024;2023-02-16T11:39:02;102248.31;;;9.74;100.00
58955;BME280;45815;52.334;5.024;2023-02-16T11:41:29;102236.56;;;9.85;100.00
58955;BME280;45815;52.334;5.024;2023-02-16T11:43:58;102238.38;;;9.86;100.00
58955;BME280;45815;52.334;5.024;2023-02-16T11:46:24;102236.97;;;9.94;100.00
58955;BME280;45815;52.334;5.024;2023-02-16T11:48:50;102229.81;;;9.90;100.00
58955;BME280;45815;52.334;5.024;2023-02-16T11:51:30;102226.28;;;9.90;100.00
58955;BME280;45815;52.334;5.024;2023-02-16T11:54:04;102215.88;;;9.91;100.00
58955;BME280;45815;52.334;5.024;2023-02-16T11:56:33;102215.38;;;10.00;100.00
58955;BME280;45815;52.334;5.024;2023-02-16T12:01:54;102203.72;;;9.93;100.00
58955;BME280;45815;52.334;5.024;2023-02-16T12:10:20;102191.50;;;10.15;100.00
58955;BME280;45815;52.334;5.024;2023-02-16T12:13:09;102194.25;;;10.38;100.00
58955;BME280;45815;52.334;5.024;2023-02-16T12:15:45;102184.31;;;10.72;100.00
58955;BME280;45815;52.334;5.024;2023-02-16T12:23:57;102143.94;;;11.89;100.00
58955;BME280;45815;52.334;5.024;2023-02-16T12:29:23;102141.91;;;11.82;100.00
58955;BME280;45815;52.334;5.024;2023-02-16T12:32:06;102130.88;;;11.91;100.00
58955;BME280;45815;52.334;5.024;2023-02-16T12:43:15;102121.56;;;12.28;100.00
58955;BME280;45815;52.334;5.024;2023-02-16T12:45:45;102116.91;;;12.46;100.00
58955;BME280;45815;52.334;5.024;2023-02-16T12:48:50;102128.31;;;12.46;100.00
58955;BME280;45815;52.334;5.024;2023-02-16T12:51:21;102118.38;;;12.38;100.00
58955;BME280;45815;52.334;5.024;2023-02-16T12:53:57;102127.47;;;12.20;100.00
58955;BME280;45815;52.334;5.024;2023-02-16T12:56:31;102127.25;;;12.13;100.00
58955;BME280;45815;52.334;5.024;2023-02-16T12:59:20;102126.06;;;12.04;100.00
58955;BME280;45815;52.334;5.024;2023-02-16T13:01:49;102120.59;;;11.98;100.00
58955;BME280;45815;52.334;5.024;2023-02-16T13:07:30;102114.72;;;11.81;100.00
58955;BME280;45815;52.334;5.024;2023-02-16T13:10:19;102108.34;;;11.75;100.00
58955;BME280;45815;52.334;5.024;2023-02-16T13:12:54;102101.53;;;11.80;100.00
58955;BME280;45815;52.334;5.024;2023-02-16T13:15:37;102095.28;;;11.76;100.00
58955;BME280;45815;52.334;5.024;2023-02-16T13:18:23;102084.34;;;11.64;100.00
58955;BME280;45815;52.334;5.024;2023-02-16T13:23:30;102069.75;;;11.74;100.00
58955;BME280;45815;52.334;5.024;2023-02-16T13:45:57;102041.97;;;11.56;100.00
58955;BME280;45815;52.334;5.024;2023-02-16T13:48:25;102037.47;;;11.52;100.00
58955;BME280;45815;52.334;5.024;2023-02-16T13:50:57;102027.53;;;11.44;100.00
58955;BME280;45815;52.334;5.024;2023-02-16T13:53:24;102048.72;;;11.48;100.00
58955;BME280;45815;52.334;5.024;2023-02-16T13:58:37;102030.09;;;11.42;100.00
58955;BME280;45815;52.334;5.024;2023-02-16T14:03:57;102018.94;;;11.24;100.00
58955;BME280;45815;52.334;5.024;2023-02-16T14:14:26;102024.47;;;11.07;100.00
58955;BME280;45815;52.334;5.024;2023-02-16T14:16:51;102019.13;;;10.80;100.00
58955;BME280;45815;52.334;5.024;2023-02-16T14:19:23;102018.94;;;10.98;100.00
58955;BME280;45815;52.334;5.024;2023-02-16T14:21:50;102017.13;;;10.97;100.00
58955;BME280;45815;52.334;5.024;2023-02-16T14:24:31;102012.72;;;10.96;100.00
58955;BME280;45815;52.334;5.024;2023-02-16T14:27:04;102009.25;;;10.97;100.00
58955;BME280;45815;52.334;5.024;2023-02-16T14:29:52;102012.59;;;10.93;100.00
58955;BME280;45815;52.334;5.024;2023-02-16T14:32:25;102016.16;;;10.95;100.00
58955;BME280;45815;52.334;5.024;2023-02-16T14:37:40;102030.81;;;10.88;100.00
58955;BME280;45815;52.334;5.024;2023-02-16T14:43:18;102022.19;;;10.68;100.00
58955;BME280;45815;52.334;5.024;2023-02-16T14:45:54;102028.50;;;10.73;100.00
58955;BME280;45815;52.334;5.024;2023-02-16T14:48:42;102037.94;;;10.68;100.00
58955;BME280;45815;52.334;5.024;2023-02-16T14:57:13;102039.41;;;10.38;100.00
58955;BME280;45815;52.334;5.024;2023-02-16T14:59:54;102043.31;;;10.26;100.00
58955;BME280;45815;52.334;5.024;2023-02-16T15:02:30;102048.59;;;10.05;100.00
58955;BME280;45815;52.334;5.024;2023-02-16T15:04:56;102039.47;;;10.18;100.00
58955;BME280;45815;52.334;5.024;2023-02-16T15:07:23;102040.38;;;10.19;100.00
58955;BME280;45815;52.334;5.024;2023-02-16T15:09:55;102027.28;;;10.20;100.00
58955;BME280;45815;52.334;5.024;2023-02-16T15:12:37;102033.44;;;10.21;100.00
58955;BME280;45815;52.334;5.024;2023-02-16T15:15:05;102032.19;;;10.11;100.00
58955;BME280;45815;52.334;5.024;2023-02-16T15:17:38;102028.84;;;10.15;100.00
58955;BME280;45815;52.334;5.024;2023-02-16T15:20:25;102045.19;;;10.08;100.00
58955;BME280;45815;52.334;5.024;2023-02-16T15:22:54;102040.06;;;10.11;100.00